Panda — PBCS — position and weather

sailwx.info

Track history (hours):
 
Tides and Currents Weather Stations Pressure Air Temp Water Temp Dewpoint Dewpoint Depression Visibility Wind Speed Wind Dir Waves Ship Positions

Panda

Last reported at 2015-May-24 16:27 UTC. Time now 2015-May-24 17:17 UTC.
Position N 54°11' E 012°06'.

Length 89 m; draft 4 m.

Type: Cargo ship. MMSI: 245014000.

Date/timePositionNaut miles runAvg speedWind from/ knotsBaromVisibWave heightAir tempDewpointWater temp
2015-May-24 16:27N 54°11' E 012°06'4 3.7
2015-May-24 15:27N 54°13' E 012°00'0 0.0
2015-May-24 14:21N 54°13' E 012°00'0 0.0
2015-May-24 13:33N 54°13' E 012°00'0 0.0
2015-May-24 12:21N 54°13' E 012°00'0 0.0
2015-May-24 11:33N 54°13' E 012°00'0 0.0
2015-May-24 10:27N 54°13' E 012°00'0 0.0
2015-May-24 09:21N 54°13' E 012°00'0 0.0
2015-May-24 08:33N 54°13' E 012°00'0 0.0
2015-May-24 06:33N 54°13' E 012°00'0 0.0
2015-May-24 05:30N 54°13' E 012°00'0 0.0
2015-May-24 04:30N 54°13' E 012°00'0 0.0
2015-May-24 02:33N 54°13' E 012°00'0 0.0
2015-May-24 01:14N 54°13' E 012°00'0 0.0
2015-May-23 23:32N 54°13' E 012°00'0 0.0
2015-May-23 22:26N 54°13' E 012°00'0 0.0
2015-May-23 21:23N 54°13' E 012°00'0 0.0
2015-May-23 20:32N 54°13' E 012°00'0 0.0
2015-May-23 19:32N 54°13' E 012°00'0 0.0
2015-May-23 18:26N 54°13' E 012°00'0 0.0
2015-May-23 17:11N 54°13' E 012°00'0 0.0
2015-May-23 16:29N 54°13' E 012°00'1 1.0
2015-May-23 15:32N 54°14' E 011°59'11 9.8
2015-May-23 14:26N 54°21' E 011°46'910.2
2015-May-23 13:33N 54°26' E 011°33'10 9.9
2015-May-23 12:33N 54°32' E 011°19'24 9.7
2015-May-23 10:03N 54°33' E 010°38'5 9.9
2015-May-23 09:31N 54°31' E 010°29'9 9.4
2015-May-23 08:33N 54°27' E 010°16'6 6.3
2015-May-23 07:33N 54°22' E 010°08'4 4.2
2015-May-23 06:33N 54°22' E 010°01'5 5.1
2015-May-23 05:33N 54°21' E 009°53'7 7.4
2015-May-23 04:32N 54°18' E 009°42'4 3.5
2015-May-23 03:33N 54°15' E 009°37'27 6.4
2015-May-22 23:14N 53°53' E 009°09'2 2.8
2015-May-22 22:33N 53°53' E 009°06'5 5.5
2015-May-22 21:33N 53°51' E 008°57'7 6.6
2015-May-22 20:33N 53°51' E 008°46'6 5.9
2015-May-22 19:33N 53°55' E 008°40'7 6.9
2015-May-22 18:33N 53°58' E 008°29'12 8.8
2015-May-22 17:13N 53°59' E 008°09'6 9.6
2015-May-22 16:33N 53°56' E 007°59'1110.6
2015-May-22 15:33N 53°47' E 008°09'1110.8
2015-May-22 14:33N 53°40' E 008°23'9 8.7
2015-May-22 13:33N 53°34' E 008°33'8 7.7
2015-May-22 12:33N 53°26' E 008°30'6 6.0
2015-May-22 11:32N 53°20' E 008°29'0 0.0
2015-May-22 10:20N 53°20' E 008°29'0 0.0
2015-May-22 09:33N 53°20' E 008°29'0 0.0
2015-May-22 08:33N 53°20' E 008°29'0 0.0
2015-May-22 07:33N 53°20' E 008°29'0 0.0
2015-May-22 06:33N 53°20' E 008°29'0 0.0
2015-May-22 05:33N 53°20' E 008°29'0 0.1
2015-May-22 04:33N 53°20' E 008°30'9 8.6
2015-May-22 03:33N 53°29' E 008°30'9 9.5
2015-May-22 02:33N 53°38' E 008°26'1212.4
2015-May-22 01:33N 53°46' E 008°10'1211.8
2015-May-22 00:33N 53°52' E 007°53'1212.3
2015-May-21 23:33N 53°52' E 007°32'34 7.7
2015-May-21 19:07N 53°32' E 006°45'711.9
2015-May-21 18:33N 53°27' E 006°53'1111.3
2015-May-21 17:33N 53°20' E 007°08'1110.5
2015-May-21 16:33N 53°15' E 007°24'9 8.6
2015-May-21 15:30N 53°06' E 007°22'1 0.0
2015-May-21 00:31N 53°06' E 007°22'1 1.2
2015-May-20 23:30N 53°07' E 007°22'8 7.8
2015-May-20 22:27N 53°15' E 007°24'8 8.8
2015-May-20 21:33N 53°20' E 007°13'8 8.4
2015-May-20 20:33N 53°21' E 006°59'10 9.5
2015-May-20 19:33N 53°29' E 006°50'20 2.0
2015-May-20 09:26N 53°36' E 006°18'910.4
2015-May-20 08:34N 53°36' E 006°03'1312.6
2015-May-20 07:34N 53°35' E 005°42'1110.7
2015-May-20 06:34N 53°33' E 005°25'1110.6
2015-May-20 05:33N 53°29' E 005°08'1010.2
2015-May-20 04:34N 53°25' E 004°52'34 8.5
2015-May-20 00:33N 52°57' E 004°20'8 7.8
2015-May-19 23:33N 52°50' E 004°14'8 7.6
2015-May-19 22:34N 52°44' E 004°08'8 7.6
2015-May-19 21:34N 52°39' E 003°59'67 8.4
2015-May-19 13:31N 51°35' E 003°24'9 9.3
2015-May-19 12:33N 51°27' E 003°32'7 6.8
2015-May-19 11:34N 51°28' E 003°42'0 0.0
2015-May-19 10:24N 51°28' E 003°42'0 0.0
2015-May-19 09:30N 51°28' E 003°42'0 0.0
2015-May-19 08:30N 51°28' E 003°42'0 0.0
2015-May-19 07:24N 51°28' E 003°42'0 0.0
2015-May-19 06:30N 51°28' E 003°42'0 0.0
2015-May-19 05:30N 51°28' E 003°42'0 0.0
2015-May-19 04:33N 51°28' E 003°42'3 2.6
2015-May-19 03:33N 51°26' E 003°40'6 6.0
2015-May-19 02:34N 51°25' E 003°30'1410.3
2015-May-19 01:14N 51°23' E 003°09'811.2
2015-May-19 00:33N 51°22' E 002°57'10 9.7
2015-May-18 23:32N 51°22' E 002°41'6 6.2
2015-May-18 22:33N 51°22' E 002°31'6 6.0
2015-May-18 21:32N 51°19' E 002°22'8 8.2
2015-May-18 20:33N 51°14' E 002°12'8 7.6
2015-May-18 19:32N 51°11' E 002°01'8 7.9
2015-May-18 18:33N 51°08' E 001°50'12 8.3
2015-May-18 17:09N 50°59' E 001°37'  
2015-May-15 19:30N 43°34' W 005°42'0 0.0
2015-May-15 18:30N 43°34' W 005°42'0 0.0
2015-May-15 17:30N 43°34' W 005°42'0 0.0
2015-May-15 16:30N 43°34' W 005°42'0 0.0
2015-May-15 15:30N 43°34' W 005°42'0 0.0
2015-May-15 14:24N 43°34' W 005°42'0 0.0
2015-May-15 13:30N 43°34' W 005°42'0 0.0
2015-May-15 12:30N 43°34' W 005°42'0 0.0
2015-May-15 11:30N 43°34' W 005°42'0 0.0
2015-May-15 10:30N 43°34' W 005°42'0 0.0
2015-May-15 09:18N 43°34' W 005°42'0 0.0
2015-May-15 08:30N 43°34' W 005°42'0 0.0
2015-May-15 07:30N 43°34' W 005°42'0 0.0
2015-May-15 06:24N 43°34' W 005°42'0 0.0
2015-May-15 05:30N 43°34' W 005°42'0 0.0
2015-May-15 04:30N 43°34' W 005°42'0 0.0
2015-May-15 03:18N 43°34' W 005°42'0 0.0
2015-May-15 02:24N 43°34' W 005°42'0 0.0
2015-May-15 01:30N 43°34' W 005°42'0 0.0
2015-May-15 00:30N 43°34' W 005°42'0 0.0
2015-May-14 23:30N 43°34' W 005°42'0 0.0
2015-May-14 22:30N 43°34' W 005°42'0 0.0
2015-May-14 21:30N 43°34' W 005°42'0 0.0
2015-May-14 20:24N 43°34' W 005°42'0 0.0
2015-May-14 19:30N 43°34' W 005°42'0 0.0
2015-May-14 18:30N 43°34' W 005°42'0 0.0
2015-May-14 17:30N 43°34' W 005°42'0 0.0
2015-May-14 16:30N 43°34' W 005°42'  
Track history (hours):
 
Tides and Currents Weather Stations Pressure Air Temp Water Temp Dewpoint Dewpoint Depression Visibility Wind Speed Wind Dir Waves Ship Positions

Panda

Last reported at 2015-May-24 16:27 UTC. Time now 2015-May-24 17:17 UTC.
Position N 54°11' E 012°06'.

Length 89 m; draft 4 m.

Type: Cargo ship. MMSI: 245014000.

Date/timePositionNaut miles runAvg speedWind from/ knotsBaromVisibWave heightAir tempDewpointWater temp
2015-May-24 16:27N 54°11' E 012°06'4 3.7
2015-May-24 15:27N 54°13' E 012°00'0 0.0
2015-May-24 14:21N 54°13' E 012°00'0 0.0
2015-May-24 13:33N 54°13' E 012°00'0 0.0
2015-May-24 12:21N 54°13' E 012°00'0 0.0
2015-May-24 11:33N 54°13' E 012°00'0 0.0
2015-May-24 10:27N 54°13' E 012°00'0 0.0
2015-May-24 09:21N 54°13' E 012°00'0 0.0
2015-May-24 08:33N 54°13' E 012°00'0 0.0
2015-May-24 06:33N 54°13' E 012°00'0 0.0
2015-May-24 05:30N 54°13' E 012°00'0 0.0
2015-May-24 04:30N 54°13' E 012°00'0 0.0
2015-May-24 02:33N 54°13' E 012°00'0 0.0
2015-May-24 01:14N 54°13' E 012°00'0 0.0
2015-May-23 23:32N 54°13' E 012°00'0 0.0
2015-May-23 22:26N 54°13' E 012°00'0 0.0
2015-May-23 21:23N 54°13' E 012°00'0 0.0
2015-May-23 20:32N 54°13' E 012°00'0 0.0
2015-May-23 19:32N 54°13' E 012°00'0 0.0
2015-May-23 18:26N 54°13' E 012°00'0 0.0
2015-May-23 17:11N 54°13' E 012°00'0 0.0
2015-May-23 16:29N 54°13' E 012°00'1 1.0
2015-May-23 15:32N 54°14' E 011°59'11 9.8
2015-May-23 14:26N 54°21' E 011°46'910.2
2015-May-23 13:33N 54°26' E 011°33'10 9.9
2015-May-23 12:33N 54°32' E 011°19'24 9.7
2015-May-23 10:03N 54°33' E 010°38'5 9.9
2015-May-23 09:31N 54°31' E 010°29'9 9.4
2015-May-23 08:33N 54°27' E 010°16'6 6.3
2015-May-23 07:33N 54°22' E 010°08'4 4.2
2015-May-23 06:33N 54°22' E 010°01'5 5.1
2015-May-23 05:33N 54°21' E 009°53'7 7.4
2015-May-23 04:32N 54°18' E 009°42'4 3.5
2015-May-23 03:33N 54°15' E 009°37'27 6.4
2015-May-22 23:14N 53°53' E 009°09'2 2.8
2015-May-22 22:33N 53°53' E 009°06'5 5.5
2015-May-22 21:33N 53°51' E 008°57'7 6.6
2015-May-22 20:33N 53°51' E 008°46'6 5.9
2015-May-22 19:33N 53°55' E 008°40'7 6.9
2015-May-22 18:33N 53°58' E 008°29'12 8.8
2015-May-22 17:13N 53°59' E 008°09'6 9.6
2015-May-22 16:33N 53°56' E 007°59'1110.6
2015-May-22 15:33N 53°47' E 008°09'1110.8
2015-May-22 14:33N 53°40' E 008°23'9 8.7
2015-May-22 13:33N 53°34' E 008°33'8 7.7
2015-May-22 12:33N 53°26' E 008°30'6 6.0
2015-May-22 11:32N 53°20' E 008°29'0 0.0
2015-May-22 10:20N 53°20' E 008°29'0 0.0
2015-May-22 09:33N 53°20' E 008°29'0 0.0
2015-May-22 08:33N 53°20' E 008°29'0 0.0
2015-May-22 07:33N 53°20' E 008°29'0 0.0
2015-May-22 06:33N 53°20' E 008°29'0 0.0
2015-May-22 05:33N 53°20' E 008°29'0 0.1
2015-May-22 04:33N 53°20' E 008°30'9 8.6
2015-May-22 03:33N 53°29' E 008°30'9 9.5
2015-May-22 02:33N 53°38' E 008°26'1212.4
2015-May-22 01:33N 53°46' E 008°10'1211.8
2015-May-22 00:33N 53°52' E 007°53'1212.3
2015-May-21 23:33N 53°52' E 007°32'34 7.7
2015-May-21 19:07N 53°32' E 006°45'711.9
2015-May-21 18:33N 53°27' E 006°53'1111.3
2015-May-21 17:33N 53°20' E 007°08'1110.5
2015-May-21 16:33N 53°15' E 007°24'9 8.6
2015-May-21 15:30N 53°06' E 007°22'1 0.0
2015-May-21 00:31N 53°06' E 007°22'1 1.2
2015-May-20 23:30N 53°07' E 007°22'8 7.8
2015-May-20 22:27N 53°15' E 007°24'8 8.8
2015-May-20 21:33N 53°20' E 007°13'8 8.4
2015-May-20 20:33N 53°21' E 006°59'10 9.5
2015-May-20 19:33N 53°29' E 006°50'20 2.0
2015-May-20 09:26N 53°36' E 006°18'910.4
2015-May-20 08:34N 53°36' E 006°03'1312.6
2015-May-20 07:34N 53°35' E 005°42'1110.7
2015-May-20 06:34N 53°33' E 005°25'1110.6
2015-May-20 05:33N 53°29' E 005°08'1010.2
2015-May-20 04:34N 53°25' E 004°52'34 8.5
2015-May-20 00:33N 52°57' E 004°20'8 7.8
2015-May-19 23:33N 52°50' E 004°14'8 7.6
2015-May-19 22:34N 52°44' E 004°08'8 7.6
2015-May-19 21:34N 52°39' E 003°59'67 8.4
2015-May-19 13:31N 51°35' E 003°24'9 9.3
2015-May-19 12:33N 51°27' E 003°32'7 6.8
2015-May-19 11:34N 51°28' E 003°42'0 0.0
2015-May-19 10:24N 51°28' E 003°42'0 0.0
2015-May-19 09:30N 51°28' E 003°42'0 0.0
2015-May-19 08:30N 51°28' E 003°42'0 0.0
2015-May-19 07:24N 51°28' E 003°42'0 0.0
2015-May-19 06:30N 51°28' E 003°42'0 0.0
2015-May-19 05:30N 51°28' E 003°42'0 0.0
2015-May-19 04:33N 51°28' E 003°42'3 2.6
2015-May-19 03:33N 51°26' E 003°40'6 6.0
2015-May-19 02:34N 51°25' E 003°30'1410.3
2015-May-19 01:14N 51°23' E 003°09'811.2
2015-May-19 00:33N 51°22' E 002°57'10 9.7
2015-May-18 23:32N 51°22' E 002°41'6 6.2
2015-May-18 22:33N 51°22' E 002°31'6 6.0
2015-May-18 21:32N 51°19' E 002°22'8 8.2
2015-May-18 20:33N 51°14' E 002°12'8 7.6
2015-May-18 19:32N 51°11' E 002°01'8 7.9
2015-May-18 18:33N 51°08' E 001°50'12 8.3
2015-May-18 17:09N 50°59' E 001°37'  
2015-May-15 19:30N 43°34' W 005°42'0 0.0
2015-May-15 18:30N 43°34' W 005°42'0 0.0
2015-May-15 17:30N 43°34' W 005°42'0 0.0
2015-May-15 16:30N 43°34' W 005°42'0 0.0
2015-May-15 15:30N 43°34' W 005°42'0 0.0
2015-May-15 14:24N 43°34' W 005°42'0 0.0
2015-May-15 13:30N 43°34' W 005°42'0 0.0
2015-May-15 12:30N 43°34' W 005°42'0 0.0
2015-May-15 11:30N 43°34' W 005°42'0 0.0
2015-May-15 10:30N 43°34' W 005°42'0 0.0
2015-May-15 09:18N 43°34' W 005°42'0 0.0
2015-May-15 08:30N 43°34' W 005°42'0 0.0
2015-May-15 07:30N 43°34' W 005°42'0 0.0
2015-May-15 06:24N 43°34' W 005°42'0 0.0
2015-May-15 05:30N 43°34' W 005°42'0 0.0
2015-May-15 04:30N 43°34' W 005°42'0 0.0
2015-May-15 03:18N 43°34' W 005°42'0 0.0
2015-May-15 02:24N 43°34' W 005°42'0 0.0
2015-May-15 01:30N 43°34' W 005°42'0 0.0
2015-May-15 00:30N 43°34' W 005°42'0 0.0
2015-May-14 23:30N 43°34' W 005°42'0 0.0
2015-May-14 22:30N 43°34' W 005°42'0 0.0
2015-May-14 21:30N 43°34' W 005°42'0 0.0
2015-May-14 20:24N 43°34' W 005°42'0 0.0
2015-May-14 19:30N 43°34' W 005°42'0 0.0
2015-May-14 18:30N 43°34' W 005°42'0 0.0
2015-May-14 17:30N 43°34' W 005°42'0 0.0
2015-May-14 16:30N 43°34' W 005°42'  

Dump ship's entire track history